Time;durP1;ratioP1;P1;durP2;ratioP2;P2;SDS_P1;SDS_P2;PMS_P1;PMS_P2;Temp;Humidity;BMP_temperature;BMP_pressure;BME280_temperature;BME280_humidity;BME280_pressure;Samples;Min_cycle;Max_cycle;Signal;HPM_P1;HPM_P2
2023/06/22 00:02:15;;;;;;;5.93;5.22;;;;;;;20.79;65.63;101758.09;5112719;28;20020;-60
2023/06/22 00:04:40;;;;;;;6.63;4.97;;;;;;;20.54;66.66;101737.88;5121457;27;20026;-60
2023/06/22 00:07:06;;;;;;;7.70;5.03;;;;;;;20.57;67.03;101736.75;5098415;28;20112;-60
2023/06/22 00:09:33;;;;;;;9.13;5.43;;;;;;;20.68;66.99;101749.25;5112513;28;20027;-60
2023/06/22 00:12:02;;;;;;;8.18;5.00;;;;;;;20.52;66.88;101752.47;5093165;28;20060;-61
2023/06/22 00:14:27;;;;;;;7.22;5.00;;;;;;;20.53;67.00;101746.97;5102234;28;20048;-60
2023/06/22 00:16:58;;;;;;;7.22;5.88;;;;;;;20.37;67.29;101738.50;5092087;28;20017;-60
2023/06/22 00:19:26;;;;;;;10.57;5.40;;;;;;;20.24;68.23;101746.88;5112099;28;20034;-60
2023/06/22 00:21:52;;;;;;;10.35;5.50;;;;;;;20.22;68.28;101742.59;5094689;28;20038;-59
2023/06/22 00:24:21;;;;;;;7.65;5.40;;;;;;;20.39;67.49;101744.63;5077102;28;20047;-60
2023/06/22 00:26:50;;;;;;;9.68;6.35;;;;;;;20.37;67.62;101746.63;5111958;28;20486;-60
2023/06/22 00:29:16;;;;;;;10.18;5.80;;;;;;;20.40;67.70;101752.59;5093914;28;20038;-60
2023/06/22 00:35:06;;;;;;;9.55;5.63;;;;;;;20.06;68.94;101741.28;5110864;28;20041;-60
2023/06/22 00:37:31;;;;;;;10.65;6.60;;;;;;;20.05;68.96;101741.41;5117742;28;20091;-59
2023/06/22 00:39:57;;;;;;;8.98;6.07;;;;;;;20.00;69.44;101740.94;5132842;28;20466;-59
2023/06/22 00:42:25;;;;;;;13.55;6.15;;;;;;;19.97;69.45;101744.78;5132888;28;20546;-59
2023/06/22 00:44:50;;;;;;;10.20;6.07;;;;;;;19.76;69.99;101739.44;5130791;28;20047;-60
2023/06/22 00:47:19;;;;;;;13.40;6.32;;;;;;;20.04;69.56;101737.84;5111820;28;20082;-60
2023/06/22 00:49:46;;;;;;;8.13;5.28;;;;;;;20.04;69.25;101734.31;5111978;28;20111;-60
2023/06/22 00:52:13;;;;;;;8.98;5.75;;;;;;;20.04;69.34;101735.16;5112111;28;20493;-60
2023/06/22 00:54:45;;;;;;;9.65;6.00;;;;;;;19.92;69.82;101729.00;5112648;28;20482;-60
2023/06/22 00:57:15;;;;;;;8.18;5.75;;;;;;;19.98;69.32;101726.75;5111937;28;20027;-59
2023/06/22 00:59:44;;;;;;;9.40;5.90;;;;;;;19.83;70.01;101728.97;5111496;28;20110;-60
2023/06/22 01:02:11;;;;;;;6.60;5.90;;;;;;;19.99;69.76;101732.00;5111110;28;20024;-60
2023/06/22 01:04:39;;;;;;;8.20;7.38;;;;;;;19.56;70.57;101722.25;5115111;28;20035;-59
2023/06/22 01:07:41;;;;;;;8.35;7.43;;;;;;;19.91;69.60;101731.81;5100111;28;20031;-59
2023/06/22 01:10:21;;;;;;;10.95;7.82;;;;;;;19.75;70.09;101718.81;5126540;28;20486;-59
2023/06/22 01:12:53;;;;;;;11.98;8.68;;;;;;;19.73;70.16;101728.91;5097662;28;20096;-59
2023/06/22 01:15:30;;;;;;;9.75;8.60;;;;;;;19.73;70.53;101728.91;5111540;28;20023;-59
2023/06/22 01:17:58;;;;;;;9.82;7.70;;;;;;;19.79;70.44;101722.09;5092984;28;20027;-60
2023/06/22 01:20:27;;;;;;;11.52;8.48;;;;;;;19.78;70.95;101723.97;5111906;28;20037;-59
2023/06/22 01:23:04;;;;;;;10.68;9.45;;;;;;;19.88;70.60;101729.38;5131269;28;20027;-59
2023/06/22 01:25:46;;;;;;;9.75;8.75;;;;;;;19.82;70.73;101732.63;5129503;27;20031;-59
2023/06/22 01:28:15;;;;;;;8.52;7.72;;;;;;;19.70;71.12;101734.56;5114460;28;20039;-60
2023/06/22 01:30:42;;;;;;;11.98;9.77;;;;;;;19.82;71.28;101735.34;5102289;28;20028;-60
2023/06/22 01:33:12;;;;;;;11.45;9.60;;;;;;;19.76;71.60;101723.22;5109881;27;20028;-60
2023/06/22 01:35:39;;;;;;;10.40;9.40;;;;;;;19.86;71.84;101723.28;5091497;28;20031;-60
2023/06/22 01:38:05;;;;;;;13.57;9.48;;;;;;;19.73;72.48;101721.66;5078316;28;20022;-59
2023/06/22 01:40:32;;;;;;;10.45;9.40;;;;;;;19.76;72.76;101715.13;5080676;28;20478;-59
2023/06/22 01:43:00;;;;;;;10.57;9.50;;;;;;;19.77;72.25;101727.66;5095185;28;20747;-60
2023/06/22 01:45:27;;;;;;;9.88;8.88;;;;;;;19.65;72.63;101723.34;5114073;28;20036;-59
2023/06/22 01:47:56;;;;;;;11.00;9.90;;;;;;;19.73;72.58;101720.81;5098511;28;20479;-60
2023/06/22 01:50:21;;;;;;;11.57;9.80;;;;;;;19.64;72.45;101711.63;5110294;28;20501;-59
2023/06/22 01:52:49;;;;;;;12.20;9.48;;;;;;;19.77;72.75;101722.25;5095352;28;20107;-59
2023/06/22 01:55:14;;;;;;;10.48;9.57;;;;;;;19.77;72.43;101719.56;5113109;28;20374;-60
2023/06/22 01:57:39;;;;;;;10.73;9.73;;;;;;;19.57;73.30;101718.56;5093115;28;20015;-60
2023/06/22 02:00:13;;;;;;;11.00;9.80;;;;;;;19.72;73.25;101717.25;5096068;28;20086;-59
2023/06/22 02:02:56;;;;;;;12.85;10.85;;;;;;;19.61;73.74;101721.84;5086000;28;20077;-59
2023/06/22 02:05:25;;;;;;;11.90;10.70;;;;;;;19.59;73.69;101713.03;5090807;28;20027;-60
2023/06/22 02:08:07;;;;;;;11.80;10.80;;;;;;;19.70;73.44;101713.81;5114038;28;20023;-60
2023/06/22 02:10:36;;;;;;;12.20;11.10;;;;;;;19.62;73.66;101716.34;5095155;28;20032;-60
2023/06/22 02:13:06;;;;;;;12.88;11.52;;;;;;;19.71;73.60;101714.69;5088244;28;20027;-60
2023/06/22 02:15:32;;;;;;;13.35;12.05;;;;;;;19.65;74.02;101718.78;5085887;28;20084;-59
2023/06/22 02:17:59;;;;;;;13.15;11.85;;;;;;;19.71;74.19;101720.09;5095121;28;20416;-59
2023/06/22 02:20:25;;;;;;;14.65;11.80;;;;;;;19.69;74.14;101716.66;5104605;28;20111;-60
2023/06/22 02:22:50;;;;;;;12.95;11.55;;;;;;;19.42;75.20;101706.41;5106407;28;20611;-59
2023/06/22 02:25:19;;;;;;;12.40;11.30;;;;;;;19.44;75.19;101713.41;5111180;28;20027;-59
2023/06/22 02:27:47;;;;;;;13.88;11.88;;;;;;;19.59;75.08;101711.19;5088126;28;20120;-60
2023/06/22 02:30:14;;;;;;;13.07;11.65;;;;;;;19.34;75.67;101698.97;5086270;28;20047;-59
2023/06/22 02:32:43;;;;;;;12.98;11.65;;;;;;;19.32;76.21;101705.50;5099541;28;20487;-60
2023/06/22 02:35:09;;;;;;;14.05;12.27;;;;;;;19.39;75.94;101699.44;5107526;28;20428;-60
2023/06/22 02:37:41;;;;;;;12.65;11.35;;;;;;;19.39;75.84;101693.19;5112695;28;20043;-59
2023/06/22 02:40:08;;;;;;;13.43;12.18;;;;;;;19.25;76.92;101697.09;5102921;28;20039;-60
2023/06/22 02:42:34;;;;;;;13.80;12.38;;;;;;;19.35;76.62;101697.97;5096332;28;20478;-60
2023/06/22 02:45:02;;;;;;;14.05;12.60;;;;;;;19.19;77.44;101705.72;5106955;28;20039;-59
2023/06/22 02:47:27;;;;;;;13.65;12.25;;;;;;;19.25;76.91;101689.84;5109947;28;20050;-60
2023/06/22 02:49:55;;;;;;;14.77;13.38;;;;;;;19.24;77.49;101688.13;5094685;28;20024;-59
2023/06/22 02:52:20;;;;;;;16.30;13.32;;;;;;;19.21;77.53;101688.41;5105446;28;20437;-59
2023/06/22 02:54:46;;;;;;;15.38;13.77;;;;;;;19.06;78.21;101693.28;5105254;28;20032;-59
2023/06/22 02:57:13;;;;;;;14.70;13.13;;;;;;;19.23;77.47;101697.19;5111682;28;20015;-59
2023/06/22 02:59:41;;;;;;;15.00;13.38;;;;;;;19.13;78.10;101692.75;5111678;28;20027;-59
2023/06/22 03:02:07;;;;;;;13.95;12.65;;;;;;;19.18;77.71;101683.28;5112397;28;20034;-59
2023/06/22 03:04:33;;;;;;;14.93;12.95;;;;;;;19.00;78.85;101679.44;5112830;28;20371;-59
2023/06/22 03:07:01;;;;;;;15.52;13.90;;;;;;;19.09;78.58;101669.72;5097498;28;20502;-59
2023/06/22 03:09:30;;;;;;;15.85;13.85;;;;;;;18.95;79.13;101660.13;5096163;28;20032;-59
2023/06/22 03:11:56;;;;;;;14.13;12.65;;;;;;;19.04;78.99;101667.44;5099581;28;20030;-59
2023/06/22 03:14:21;;;;;;;16.15;13.48;;;;;;;19.10;78.76;101671.44;5113254;28;20028;-60
2023/06/22 03:16:46;;;;;;;15.23;13.63;;;;;;;18.98;79.19;101666.09;5095181;28;20025;-59
2023/06/22 03:19:14;;;;;;;15.15;13.75;;;;;;;18.76;80.37;101655.44;5113368;28;20020;-59
2023/06/22 03:21:40;;;;;;;14.57;13.10;;;;;;;18.81;79.94;101658.59;5113550;28;20126;-59
2023/06/22 03:24:07;;;;;;;19.92;14.68;;;;;;;18.69;80.69;101659.63;5094830;28;20545;-59
2023/06/22 03:26:32;;;;;;;14.95;13.52;;;;;;;18.79;80.50;101658.72;5095117;28;20470;-59
2023/06/22 03:28:58;;;;;;;16.33;13.20;;;;;;;18.83;80.18;101649.41;5113582;27;20031;-60
2023/06/22 03:31:24;;;;;;;14.85;13.38;;;;;;;18.95;79.76;101655.59;5113296;28;20023;-59
2023/06/22 03:33:50;;;;;;;16.45;13.27;;;;;;;18.73;80.68;101656.53;5113265;28;20074;-59
2023/06/22 03:36:18;;;;;;;15.75;14.15;;;;;;;18.78;80.32;101651.63;5106643;28;20034;-59
2023/06/22 03:38:48;;;;;;;16.35;14.20;;;;;;;18.70;81.06;101650.53;5098892;28;20024;-59
2023/06/22 03:41:13;;;;;;;;;;;;;;;18.95;78.38;101655.59;5063810;28;20038;-60
2023/06/22 03:43:39;;;;;;;16.10;14.45;;;;;;;18.80;80.41;101643.44;5102342;28;20006;-59
2023/06/22 03:46:04;;;;;;;15.85;14.18;;;;;;;18.62;81.10;101645.81;5110653;28;20032;-59
2023/06/22 03:48:30;;;;;;;15.55;13.90;;;;;;;18.65;81.47;101634.78;5111804;28;20066;-59
2023/06/22 03:50:55;;;;;;;16.77;15.00;;;;;;;18.68;81.67;101647.09;5110862;28;20435;-60
2023/06/22 03:53:20;;;;;;;16.60;15.00;;;;;;;18.75;81.53;101648.34;5093314;28;20168;-60
2023/06/22 03:55:51;;;;;;;18.00;15.77;;;;;;;18.75;81.84;101645.66;5111745;28;20072;-60
2023/06/22 03:58:18;;;;;;;18.83;15.40;;;;;;;18.73;81.33;101637.69;5110622;28;20020;-60
2023/06/22 04:00:53;;;;;;;16.10;14.55;;;;;;;18.76;81.43;101640.13;5092934;28;20500;-59
2023/06/22 04:03:19;;;;;;;16.70;15.10;;;;;;;18.79;81.66;101639.00;5090453;28;20099;-60
2023/06/22 04:05:45;;;;;;;17.85;15.85;;;;;;;18.74;81.76;101644.81;5090788;28;20031;-61
2023/06/22 04:08:15;;;;;;;18.02;15.13;;;;;;;18.74;81.71;101646.66;5091534;28;20036;-59
2023/06/22 04:10:41;;;;;;;17.70;14.70;;;;;;;18.70;81.98;101639.75;5094163;28;20022;-60
2023/06/22 04:13:09;;;;;;;18.27;15.00;;;;;;;18.89;80.75;101637.25;5102012;28;20020;-59
2023/06/22 04:15:34;;;;;;;17.35;15.55;;;;;;;18.76;81.81;101645.50;5086868;28;20028;-60
2023/06/22 04:17:59;;;;;;;15.77;14.07;;;;;;;18.84;82.15;101637.63;5094064;28;20374;-60
2023/06/22 04:20:27;;;;;;;16.67;14.98;;;;;;;18.90;81.38;101633.56;5098944;28;20107;-59
2023/06/22 04:22:53;;;;;;;17.75;15.55;;;;;;;18.98;81.07;101643.69;5111116;28;20328;-59
2023/06/22 04:25:20;;;;;;;18.40;15.43;;;;;;;18.91;80.76;101639.78;5093661;28;20031;-60
2023/06/22 04:27:46;;;;;;;17.27;15.38;;;;;;;19.00;81.41;101645.28;5111865;28;20019;-59
2023/06/22 04:30:17;;;;;;;17.17;15.48;;;;;;;18.79;81.51;101642.53;5092927;28;20479;-59
2023/06/22 04:32:44;;;;;;;16.35;14.85;;;;;;;19.06;80.92;101651.97;5112413;28;20027;-60
2023/06/22 04:35:12;;;;;;;17.05;15.25;;;;;;;19.09;80.77;101651.72;5112712;28;20473;-60
2023/06/22 04:37:39;;;;;;;17.02;15.23;;;;;;;19.12;80.96;101642.47;5112063;28;20023;-60
2023/06/22 04:40:06;;;;;;;16.33;14.73;;;;;;;19.21;80.20;101653.34;5111633;28;20493;-60
2023/06/22 04:42:34;;;;;;;16.60;14.93;;;;;;;19.29;79.96;101641.88;5112094;28;20381;-60
2023/06/22 04:45:02;;;;;;;18.15;15.18;;;;;;;19.36;79.07;101640.34;5106448;28;20104;-60
2023/06/22 04:47:30;;;;;;;16.48;14.80;;;;;;;19.43;78.93;101654.16;5088933;28;20043;-60
2023/06/22 04:49:55;;;;;;;18.20;15.68;;;;;;;19.38;79.09;101653.69;5091863;28;20122;-60
2023/06/22 04:52:21;;;;;;;17.15;15.52;;;;;;;19.39;79.38;101660.81;5112349;28;20529;-60
2023/06/22 04:54:55;;;;;;;16.90;15.15;;;;;;;19.42;78.92;101641.66;5093119;28;20051;-60
2023/06/22 04:57:21;;;;;;;17.75;15.95;;;;;;;19.49;78.15;101646.38;5111227;28;20103;-60
2023/06/22 04:59:46;;;;;;;19.92;16.08;;;;;;;19.50;77.97;101649.91;5111782;28;20103;-60
2023/06/22 05:02:12;;;;;;;18.30;15.38;;;;;;;19.60;78.38;101650.81;5114213;28;20420;-60
2023/06/22 05:04:38;;;;;;;16.50;15.00;;;;;;;19.64;78.07;101646.00;5098907;28;20034;-59
2023/06/22 05:07:04;;;;;;;18.35;15.82;;;;;;;19.68;78.38;101653.75;5102287;28;20019;-60
2023/06/22 05:09:30;;;;;;;21.83;16.00;;;;;;;19.68;78.64;101642.94;5112086;28;20028;-59
2023/06/22 05:11:59;;;;;;;19.50;15.65;;;;;;;19.79;78.06;101643.81;5097307;28;20024;-60
2023/06/22 05:14:27;;;;;;;19.13;17.13;;;;;;;19.77;77.50;101646.66;5088043;28;20024;-60
2023/06/22 05:16:58;;;;;;;18.40;16.60;;;;;;;19.84;76.92;101646.97;5107787;28;20023;-60
2023/06/22 05:19:24;;;;;;;17.23;15.63;;;;;;;19.82;76.92;101635.44;5114594;28;20043;-60
2023/06/22 05:21:49;;;;;;;19.75;16.67;;;;;;;19.95;77.36;101650.41;5114776;28;20450;-60
2023/06/22 05:24:15;;;;;;;20.42;18.25;;;;;;;19.87;76.92;101644.00;5096588;28;20019;-60
2023/06/22 05:26:40;;;;;;;19.10;16.52;;;;;;;19.87;77.52;101646.69;5111978;28;20031;-60
2023/06/22 05:29:06;;;;;;;19.98;17.75;;;;;;;19.85;77.60;101640.56;5115029;28;20111;-60
2023/06/22 05:31:33;;;;;;;19.20;17.20;;;;;;;19.90;77.85;101646.41;5115588;28;20493;-60
2023/06/22 05:34:00;;;;;;;19.67;17.67;;;;;;;19.88;78.33;101632.19;5115640;28;20034;-60
2023/06/22 05:36:25;;;;;;;19.33;17.42;;;;;;;19.82;78.92;101628.19;5114923;28;20067;-60
2023/06/22 05:38:52;;;;;;;21.55;18.30;;;;;;;19.81;79.38;101642.69;5096439;28;20369;-60
2023/06/22 05:41:17;;;;;;;20.48;18.33;;;;;;;19.83;79.18;101634.47;5114768;28;20611;-60
2023/06/22 05:43:47;;;;;;;21.60;19.50;;;;;;;19.87;78.97;101630.50;5115657;27;20098;-60
2023/06/22 05:46:16;;;;;;;22.08;19.77;;;;;;;19.93;78.96;101641.59;5115031;28;20106;-59
2023/06/22 05:48:41;;;;;;;24.00;19.45;;;;;;;19.93;79.21;101641.59;5113882;28;20027;-60
2023/06/22 05:51:07;;;;;;;21.20;19.00;;;;;;;20.02;79.43;101645.31;5114810;28;20482;-60
2023/06/22 05:53:34;;;;;;;21.50;19.20;;;;;;;20.01;79.56;101640.91;5093286;28;20517;-60
2023/06/22 05:56:02;;;;;;;21.40;19.27;;;;;;;20.07;80.51;101648.44;5115131;28;20161;-60
2023/06/22 05:58:27;;;;;;;22.10;20.00;;;;;;;20.11;80.36;101644.47;5096539;28;20040;-60
2023/06/22 06:00:53;;;;;;;21.88;19.52;;;;;;;20.13;80.40;101638.94;5102065;28;20506;-60
2023/06/22 06:03:18;;;;;;;22.80;19.75;;;;;;;20.13;80.64;101641.63;5112929;28;20032;-60
2023/06/22 06:05:45;;;;;;;21.85;19.00;;;;;;;20.17;79.59;101643.06;5115061;28;20043;-60
2023/06/22 06:08:11;;;;;;;22.20;20.00;;;;;;;20.22;79.04;101643.50;5094936;28;20052;-60
2023/06/22 06:10:36;;;;;;;21.80;19.52;;;;;;;20.20;79.39;101635.50;5102627;28;20173;-60
2023/06/22 06:13:04;;;;;;;21.80;19.80;;;;;;;20.29;79.54;101633.81;5086321;28;20467;-59
2023/06/22 06:15:33;;;;;;;21.17;19.17;;;;;;;20.29;78.99;101635.69;5096698;28;20027;-60
2023/06/22 06:17:59;;;;;;;21.13;18.88;;;;;;;20.29;78.81;101625.72;5091428;28;20038;-59
2023/06/22 06:20:29;;;;;;;21.80;19.45;;;;;;;20.28;79.22;101631.28;5114309;28;20012;-59
2023/06/22 06:22:56;;;;;;;23.02;20.67;;;;;;;20.36;79.02;101626.88;5095762;28;20023;-59
2023/06/22 06:25:21;;;;;;;25.35;20.55;;;;;;;20.38;79.30;101633.00;5095957;28;20016;-60
2023/06/22 06:27:48;;;;;;;26.10;21.05;;;;;;;20.38;79.46;101640.22;5114472;28;20034;-59
2023/06/22 06:30:16;;;;;;;22.80;20.27;;;;;;;20.42;79.40;101638.97;5108649;28;20032;-59
2023/06/22 06:32:45;;;;;;;25.55;20.85;;;;;;;20.40;79.47;101635.53;5103343;28;20103;-60
2023/06/22 06:35:12;;;;;;;23.13;20.90;;;;;;;20.47;79.21;101628.59;5110436;28;20027;-59
2023/06/22 06:37:40;;;;;;;20.98;18.98;;;;;;;20.44;79.81;101620.75;5095661;28;20038;-59
2023/06/22 06:40:13;;;;;;;22.08;19.80;;;;;;;20.54;79.87;101629.75;5111896;28;20114;-59
2023/06/22 06:42:41;;;;;;;23.10;20.77;;;;;;;20.56;79.54;101627.78;5095781;28;20563;-59
2023/06/22 06:45:20;;;;;;;23.23;20.52;;;;;;;20.57;80.06;101632.16;5075156;28;20542;-59
2023/06/22 06:47:48;;;;;;;22.42;20.25;;;;;;;20.64;78.99;101644.09;5093420;28;20044;-60
2023/06/22 06:50:14;;;;;;;22.75;20.30;;;;;;;20.63;78.61;101639.72;5093672;28;20027;-59
2023/06/22 06:52:41;;;;;;;24.10;20.85;;;;;;;20.63;78.62;101641.56;5103985;28;20034;-60
2023/06/22 06:55:11;;;;;;;25.65;21.02;;;;;;;20.53;79.19;101636.16;5113574;28;20036;-59
2023/06/22 06:57:38;;;;;;;24.23;21.70;;;;;;;20.48;79.37;101627.59;5113818;28;20018;-61
2023/06/22 07:00:09;;;;;;;25.30;21.65;;;;;;;20.50;80.31;101622.03;5113950;28;20069;-59
2023/06/22 07:02:35;;;;;;;24.27;21.70;;;;;;;20.54;80.08;101637.00;5113359;28;20099;-59
2023/06/22 07:05:04;;;;;;;25.40;20.85;;;;;;;20.55;79.69;101634.16;5095555;28;20054;-60
2023/06/22 07:07:29;;;;;;;;;;;;;;;20.70;78.98;101639.13;5095845;28;20062;-59
2023/06/22 07:09:57;;;;;;;25.23;22.60;;;;;;;20.55;81.56;101627.91;5085237;27;19944;-60
2023/06/22 07:12:25;;;;;;;23.90;21.55;;;;;;;20.62;80.29;101637.16;5106980;27;20035;-60
2023/06/22 07:14:52;;;;;;;23.30;20.98;;;;;;;20.61;80.54;101641.69;5108924;27;20377;-60
2023/06/22 07:17:17;;;;;;;23.95;21.60;;;;;;;20.63;80.39;101637.00;5123392;27;20108;-59
2023/06/22 07:19:43;;;;;;;26.00;22.35;;;;;;;20.70;80.30;101634.56;5112714;28;20107;-60
2023/06/22 07:22:08;;;;;;;24.58;22.08;;;;;;;20.67;79.12;101637.56;5094430;28;20424;-59
2023/06/22 07:24:33;;;;;;;25.65;22.92;;;;;;;20.68;80.23;101639.28;5111099;28;20047;-60
2023/06/22 07:27:02;;;;;;;25.60;23.15;;;;;;;20.73;80.60;101636.13;5094687;28;20035;-59
2023/06/22 07:29:28;;;;;;;;;;;;;;;20.83;79.28;101632.44;5085580;28;20031;-59
2023/06/22 07:31:54;;;;;;;25.23;22.52;;;;;;;20.75;84.02;101632.28;5104307;27;19915;-60
2023/06/22 07:34:19;;;;;;;26.05;23.38;;;;;;;20.73;81.79;101623.47;5093963;28;20378;-60
2023/06/22 07:36:45;;;;;;;26.38;23.88;;;;;;;20.78;83.63;101625.75;5111339;28;20027;-59
2023/06/22 07:39:12;;;;;;;25.65;23.15;;;;;;;20.73;84.84;101611.81;5093929;28;20066;-60
2023/06/22 07:41:39;;;;;;;27.65;24.33;;;;;;;20.75;85.08;101613.38;5112457;27;20074;-60
2023/06/22 07:44:06;;;;;;;26.60;24.00;;;;;;;20.79;86.36;101595.00;5112088;28;20043;-60
2023/06/22 07:46:32;;;;;;;27.95;25.05;;;;;;;20.79;86.28;101597.72;5092971;28;20566;-59
2023/06/22 07:48:57;;;;;;;27.92;24.83;;;;;;;20.82;87.34;101589.31;5107580;28;20064;-60
2023/06/22 07:51:25;;;;;;;27.73;25.00;;;;;;;20.86;86.74;101580.75;5092926;28;20055;-60
2023/06/22 07:53:50;;;;;;;28.88;25.42;;;;;;;20.87;88.00;101568.94;5102876;28;20462;-59
2023/06/22 07:56:19;;;;;;;28.83;26.02;;;;;;;20.91;87.86;101561.38;5111793;28;20084;-60
2023/06/22 07:58:46;;;;;;;33.65;26.20;;;;;;;21.03;88.58;101560.22;5111683;28;20027;-60
2023/06/22 08:01:11;;;;;;;28.77;25.98;;;;;;;21.00;86.74;101555.13;5116414;27;20449;-59
2023/06/22 08:03:40;;;;;;;29.73;26.63;;;;;;;21.12;86.16;101554.91;5093362;28;20031;-60
2023/06/22 08:06:08;;;;;;;28.27;25.23;;;;;;;21.14;87.12;101545.66;5085567;28;20034;-59
2023/06/22 08:08:34;;;;;;;28.33;25.48;;;;;;;21.21;86.07;101529.69;5099643;28;20458;-59
2023/06/22 08:10:59;;;;;;;29.92;25.02;;;;;;;21.28;86.51;101523.50;5111717;28;20111;-59
2023/06/22 08:13:25;;;;;;;29.15;26.17;;;;;;;21.39;85.24;101529.78;5091201;28;20405;-60
2023/06/22 08:15:50;;;;;;;28.52;25.38;;;;;;;21.43;86.64;101531.16;5112347;27;20110;-59
2023/06/22 08:18:16;;;;;;;30.42;26.05;;;;;;;21.46;85.75;101529.00;5093203;28;20364;-59
2023/06/22 08:20:42;;;;;;;27.38;24.67;;;;;;;21.46;84.56;101530.88;5109891;28;20034;-59
2023/06/22 08:23:07;;;;;;;28.13;25.10;;;;;;;21.43;85.11;101529.31;5091344;28;20031;-60
2023/06/22 08:25:34;;;;;;;28.20;25.45;;;;;;;21.39;nan;101527.91;5107902;28;20439;-60
2023/06/22 08:28:00;;;;;;;28.73;25.45;;;;;;;21.40;86.04;101521.50;5093466;28;20066;-60
2023/06/22 08:30:25;;;;;;;28.10;25.20;;;;;;;21.37;86.15;101529.06;5093496;28;20055;-60
2023/06/22 08:32:55;;;;;;;27.33;24.65;;;;;;;21.35;86.32;101515.63;5106626;28;20034;-59
2023/06/22 08:35:21;;;;;;;180.15;32.53;;;;;;;21.40;86.02;101528.75;5111094;28;20028;-60
2023/06/22 08:37:51;;;;;;;27.98;24.88;;;;;;;21.35;86.30;101528.31;5111658;28;20023;-59
2023/06/22 08:40:17;;;;;;;27.85;25.00;;;;;;;21.30;86.17;101528.78;5110738;28;20043;-59
2023/06/22 08:42:45;;;;;;;29.55;24.42;;;;;;;21.28;86.74;101526.22;5092728;28;20037;-60
2023/06/22 08:45:11;;;;;;;26.10;23.65;;;;;;;21.35;85.76;101518.34;5111146;28;20024;-59
2023/06/22 08:47:38;;;;;;;28.60;24.60;;;;;;;21.34;84.81;101516.66;5109934;28;20096;-60
2023/06/22 08:50:05;;;;;;;27.52;24.67;;;;;;;21.37;84.75;101519.09;5109743;28;20035;-63
2023/06/22 08:52:31;;;;;;;24.45;22.15;;;;;;;21.48;85.52;101521.59;5097263;28;20032;-62
2023/06/22 08:54:58;;;;;;;24.58;21.95;;;;;;;21.45;84.46;101515.63;5109913;28;20023;-63
2023/06/22 08:57:23;;;;;;;25.77;23.13;;;;;;;21.47;84.85;101514.50;5110954;28;20723;-60
2023/06/22 08:59:48;;;;;;;24.25;21.90;;;;;;;21.44;84.85;101512.09;5092916;28;20107;-60
2023/06/22 09:02:14;;;;;;;23.50;20.95;;;;;;;21.46;84.44;101504.66;5108387;28;20119;-59
2023/06/22 09:04:39;;;;;;;23.40;20.88;;;;;;;21.49;83.17;101500.78;5084299;28;20031;-59
2023/06/22 09:07:07;;;;;;;22.88;20.55;;;;;;;21.49;83.38;101504.34;5111220;28;20031;-70
2023/06/22 09:09:32;;;;;;;21.35;19.25;;;;;;;21.54;82.63;101503.91;5092547;28;20023;-68
2023/06/22 09:11:58;;;;;;;21.33;19.23;;;;;;;21.64;80.33;101509.22;5118120;28;20023;-68
2023/06/22 09:14:23;;;;;;;20.63;18.45;;;;;;;21.63;81.30;101494.84;5092560;28;20126;-69
2023/06/22 09:16:48;;;;;;;19.60;17.67;;;;;;;21.69;80.46;101502.34;5106542;28;20024;-67
2023/06/22 09:19:14;;;;;;;19.00;17.10;;;;;;;21.74;80.83;101491.09;5107472;28;20030;-67
2023/06/22 09:21:39;;;;;;;20.48;17.63;;;;;;;21.87;77.67;101496.94;5111064;28;20035;-67
2023/06/22 09:24:05;;;;;;;20.38;17.55;;;;;;;22.01;77.28;101500.97;5108227;28;20041;-67
2023/06/22 09:26:30;;;;;;;18.42;16.50;;;;;;;22.06;75.74;101495.94;5111285;28;20482;-68
2023/06/22 09:28:56;;;;;;;19.88;16.40;;;;;;;22.17;76.50;101494.88;5110851;28;20023;-67
2023/06/22 09:31:25;;;;;;;17.48;15.88;;;;;;;22.30;74.54;101503.47;5110643;28;20024;-67
2023/06/22 09:33:54;;;;;;;16.90;15.32;;;;;;;22.33;74.00;101505.84;5109760;28;20027;-67
2023/06/22 09:36:23;;;;;;;16.45;14.75;;;;;;;22.38;73.63;101511.66;5111157;28;20029;-69
2023/06/22 09:38:55;;;;;;;16.02;14.40;;;;;;;22.49;71.72;101504.28;5102321;28;20031;-67
2023/06/22 09:41:20;;;;;;;14.30;12.77;;;;;;;22.53;67.96;101502.94;5083228;28;20458;-66
2023/06/22 09:43:46;;;;;;;14.05;12.65;;;;;;;22.50;67.99;101489.69;5122361;28;20054;-68
2023/06/22 09:46:15;;;;;;;14.40;11.70;;;;;;;22.43;70.05;101497.63;5110636;28;20517;-65
2023/06/22 09:48:40;;;;;;;17.33;12.40;;;;;;;22.47;69.59;101487.31;5113812;28;20020;-66
2023/06/22 09:51:06;;;;;;;15.48;12.50;;;;;;;22.51;67.66;101484.13;5112026;28;20030;-64
2023/06/22 09:53:31;;;;;;;13.55;12.15;;;;;;;22.52;68.25;101479.56;5110871;28;20038;-65
2023/06/22 09:55:57;;;;;;;18.13;12.63;;;;;;;22.45;69.21;101480.19;5094633;28;20103;-65
2023/06/22 09:58:22;;;;;;;14.73;13.23;;;;;;;22.56;68.25;101480.91;5108900;28;20037;-65
2023/06/22 10:00:48;;;;;;;15.05;12.63;;;;;;;22.52;69.04;101485.81;5093534;28;20023;-65
2023/06/22 10:03:13;;;;;;;14.57;13.00;;;;;;;22.55;67.72;101490.91;5112028;28;20384;-65
2023/06/22 10:05:38;;;;;;;16.17;12.95;;;;;;;22.59;67.89;101488.72;5089918;28;20393;-64
2023/06/22 10:08:04;;;;;;;21.27;12.85;;;;;;;22.48;69.45;101489.88;5111539;28;20036;-64
2023/06/22 10:10:32;;;;;;;14.55;12.70;;;;;;;22.50;68.17;101487.88;5116995;27;20027;-65
2023/06/22 10:13:02;;;;;;;13.55;12.20;;;;;;;22.55;67.99;101481.94;5120787;27;20411;-65
2023/06/22 10:15:30;;;;;;;14.70;13.30;;;;;;;22.47;69.89;101488.16;5114114;28;20027;-64
2023/06/22 10:17:55;;;;;;;20.95;14.48;;;;;;;22.45;69.02;101493.75;5114448;28;20458;-64
2023/06/22 10:20:22;;;;;;;16.33;13.45;;;;;;;22.50;68.66;101485.16;5110852;27;20106;-69
2023/06/22 10:22:47;;;;;;;14.32;13.00;;;;;;;22.44;69.85;101491.19;5114310;28;20024;-66
2023/06/22 10:25:15;;;;;;;16.45;13.57;;;;;;;22.47;70.72;101495.44;5110284;28;20035;-67
2023/06/22 10:27:40;;;;;;;14.90;13.40;;;;;;;22.45;70.50;101482.06;5113164;28;20084;-68
2023/06/22 10:30:07;;;;;;;17.90;13.63;;;;;;;22.42;71.19;101491.34;5103573;28;20039;-66
2023/06/22 10:32:33;;;;;;;16.25;14.18;;;;;;;22.50;70.76;101496.00;5113966;28;20019;-68
2023/06/22 10:34:58;;;;;;;16.27;14.40;;;;;;;22.38;73.57;101486.38;5112363;28;20084;-67
2023/06/22 10:37:26;;;;;;;16.63;14.90;;;;;;;22.44;75.26;101493.88;5078655;28;20233;-66
2023/06/22 10:39:51;;;;;;;17.73;14.57;;;;;;;22.41;77.14;101499.63;5113311;27;20035;-63
2023/06/22 10:42:17;;;;;;;16.90;14.95;;;;;;;22.41;78.39;101518.59;5113476;27;20024;-64
2023/06/22 10:44:44;;;;;;;16.95;15.30;;;;;;;22.32;78.01;101527.69;5094958;28;20102;-65
2023/06/22 10:47:12;;;;;;;15.95;14.32;;;;;;;22.31;79.94;101534.13;5111938;28;20414;-64
2023/06/22 10:49:41;;;;;;;17.73;15.90;;;;;;;22.10;79.78;101529.00;5112071;27;20486;-64
2023/06/22 10:52:09;;;;;;;19.37;17.37;;;;;;;22.04;81.78;101532.34;5108313;28;20564;-64
2023/06/22 10:54:36;;;;;;;20.60;17.63;;;;;;;21.89;83.18;101532.88;5082533;28;20039;-64
2023/06/22 10:57:02;;;;;;;21.05;17.95;;;;;;;21.81;85.06;101521.94;5128916;27;20281;-64
2023/06/22 10:59:28;;;;;;;21.70;19.42;;;;;;;21.82;87.17;101518.22;5091520;28;20631;-65
2023/06/22 11:01:55;;;;;;;22.23;19.95;;;;;;;21.88;87.88;101528.44;5094759;28;20557;-64
2023/06/22 11:04:20;;;;;;;22.85;20.40;;;;;;;21.73;88.63;101529.97;5112380;28;20023;-64
2023/06/22 11:06:47;;;;;;;23.15;20.75;;;;;;;21.76;91.93;101529.66;5109919;28;20396;-65
2023/06/22 11:09:12;;;;;;;24.67;21.02;;;;;;;21.73;91.17;101524.56;5092842;28;20028;-65
2023/06/22 11:11:38;;;;;;;25.35;22.70;;;;;;;21.66;92.35;101529.75;5093354;28;20386;-64
2023/06/22 11:14:05;;;;;;;25.48;22.63;;;;;;;21.55;93.85;101521.81;5093236;28;20027;-64
2023/06/22 11:16:31;;;;;;;29.88;23.35;;;;;;;21.46;95.32;101522.75;5112936;28;20427;-64